createdAt,value
2023-08-01T00:00:05.464Z,236.62
2023-08-01T00:01:05.601Z,237.54
2023-08-01T00:02:05.540Z,237.88
2023-08-01T00:03:05.516Z,236.03
2023-08-01T00:04:05.533Z,237.96
2023-08-01T00:05:05.456Z,239.02
2023-08-01T00:06:05.434Z,239.65
2023-08-01T00:07:05.469Z,242.00
2023-08-01T00:08:05.439Z,241.94
2023-08-01T00:09:05.498Z,245.98
2023-08-01T00:10:05.455Z,244.04
2023-08-01T00:11:05.429Z,242.96
2023-08-01T00:12:05.811Z,246.83
2023-08-01T00:13:05.435Z,249.50
2023-08-01T00:14:05.393Z,248.44
2023-08-01T00:15:05.422Z,247.94
2023-08-01T00:16:07.967Z,248.63
2023-08-01T00:17:05.407Z,248.67
2023-08-01T00:18:05.450Z,247.41
2023-08-01T00:19:05.377Z,249.42
2023-08-01T00:20:05.398Z,246.58
2023-08-01T00:21:05.358Z,248.02
2023-08-01T00:22:05.428Z,250.00
2023-08-01T00:23:05.411Z,249.57
2023-08-01T00:24:05.368Z,250.00
2023-08-01T00:25:05.412Z,250.04
2023-08-01T00:26:05.390Z,248.56
2023-08-01T00:27:05.369Z,249.49
2023-08-01T00:28:05.425Z,249.83
2023-08-01T00:29:05.306Z,246.81
2023-08-01T00:30:05.365Z,250.00
2023-08-01T00:31:05.317Z,248.53
2023-08-01T00:32:05.322Z,247.51
2023-08-01T00:33:05.267Z,247.75
2023-08-01T00:34:05.274Z,250.00
2023-08-01T00:35:05.263Z,248.41
2023-08-01T00:36:05.235Z,249.51
2023-08-01T00:37:05.251Z,249.68
2023-08-01T00:38:05.227Z,249.35
2023-08-01T00:39:05.231Z,249.38
2023-08-01T00:40:05.261Z,248.94
2023-08-01T00:41:05.219Z,249.13
2023-08-01T00:42:05.192Z,250.00
2023-08-01T00:43:05.301Z,248.89
2023-08-01T00:44:05.182Z,249.68
2023-08-01T00:45:05.200Z,247.23
2023-08-01T00:46:05.204Z,248.47
2023-08-01T00:47:05.191Z,248.77
2023-08-01T00:48:05.203Z,247.62
2023-08-01T00:49:05.162Z,247.66
2023-08-01T00:50:05.199Z,249.42
2023-08-01T00:51:05.169Z,247.69
2023-08-01T00:52:05.345Z,249.38
2023-08-01T00:53:05.135Z,248.76
2023-08-01T00:54:05.110Z,248.54
2023-08-01T00:55:05.133Z,250.00
2023-08-01T00:56:05.114Z,248.23
2023-08-01T00:57:05.122Z,248.79
2023-08-01T00:58:05.141Z,246.98
2023-08-01T00:59:05.103Z,247.38
2023-08-01T01:00:05.083Z,249.45
2023-08-01T01:01:05.106Z,248.55
2023-08-01T01:02:05.120Z,248.89
2023-08-01T01:03:05.178Z,249.18
2023-08-01T01:04:05.049Z,247.68
2023-08-01T01:05:05.062Z,248.70
2023-08-01T01:06:05.044Z,249.24
2023-08-01T01:07:05.049Z,247.07
2023-08-01T01:08:05.339Z,247.75
2023-08-01T01:09:05.043Z,247.02
2023-08-01T01:10:05.029Z,248.05
2023-08-01T01:11:05.024Z,247.51
2023-08-01T01:12:04.988Z,248.09
2023-08-01T01:13:05.028Z,248.58
2023-08-01T01:14:05.030Z,247.01
2023-08-01T01:15:04.977Z,246.97
2023-08-01T01:16:04.967Z,246.62
2023-08-01T01:17:05.052Z,246.69
2023-08-01T01:18:04.966Z,246.64
2023-08-01T01:19:04.982Z,246.86
2023-08-01T01:20:04.937Z,246.44
2023-08-01T01:21:04.948Z,245.18
2023-08-01T01:22:04.971Z,247.12
2023-08-01T01:23:04.954Z,246.47
2023-08-01T01:24:04.935Z,243.83
2023-08-01T01:25:04.957Z,245.65
2023-08-01T01:26:04.917Z,245.66
2023-08-01T01:27:04.920Z,244.73
2023-08-01T01:28:04.961Z,244.63
2023-08-01T01:29:04.908Z,245.06
2023-08-01T01:30:04.881Z,244.99
2023-08-01T01:31:04.955Z,244.48
2023-08-01T01:32:04.899Z,245.46
2023-08-01T01:33:04.964Z,244.53
2023-08-01T01:34:04.862Z,244.54
2023-08-01T01:35:04.852Z,245.16
2023-08-01T01:36:04.851Z,243.69
2023-08-01T01:37:04.850Z,243.14
2023-08-01T01:38:04.836Z,242.29
2023-08-01T01:39:04.839Z,242.08
2023-08-01T01:40:04.842Z,241.45
2023-08-01T01:41:04.830Z,243.04
2023-08-01T01:42:04.806Z,244.62
2023-08-01T01:43:04.806Z,243.84
2023-08-01T01:44:04.817Z,244.59
2023-08-01T01:45:04.791Z,243.69
2023-08-01T01:46:04.878Z,243.28
2023-08-01T01:47:04.794Z,244.28
2023-08-01T01:48:04.809Z,245.15
2023-08-01T01:49:04.776Z,245.13
2023-08-01T01:50:04.776Z,245.40
2023-08-01T01:51:04.783Z,245.22
2023-08-01T01:52:04.751Z,243.71
2023-08-01T01:53:04.773Z,244.61
2023-08-01T01:54:04.747Z,243.68
2023-08-01T01:55:04.748Z,245.87
2023-08-01T01:56:04.758Z,243.84
2023-08-01T01:57:04.806Z,245.73
2023-08-01T01:58:04.832Z,244.36
2023-08-01T01:59:04.832Z,246.24
2023-08-01T02:00:04.890Z,248.39
2023-08-01T02:01:04.925Z,246.37
2023-08-01T02:02:04.938Z,246.16
2023-08-01T02:03:04.934Z,246.02
2023-08-01T02:04:04.955Z,246.64
2023-08-01T02:05:05.047Z,245.87
2023-08-01T02:06:04.991Z,247.36
2023-08-01T02:07:05.006Z,246.25
2023-08-01T02:08:05.046Z,247.71
2023-08-01T02:09:05.109Z,246.49
2023-08-01T02:10:05.069Z,247.55
2023-08-01T02:11:05.105Z,247.16
2023-08-01T02:12:05.136Z,247.38
2023-08-01T02:13:05.139Z,244.88
2023-08-01T02:14:05.172Z,246.21
2023-08-01T02:15:05.206Z,245.48
2023-08-01T02:16:05.347Z,245.87
2023-08-01T02:17:05.249Z,246.38
2023-08-01T02:18:05.299Z,245.74
2023-08-01T02:19:05.268Z,246.60
2023-08-01T02:20:05.321Z,246.43
2023-08-01T02:21:05.334Z,245.93
2023-08-01T02:22:05.345Z,244.27
2023-08-01T02:23:05.371Z,246.00
2023-08-01T02:24:05.400Z,245.59
2023-08-01T02:25:05.411Z,246.45
2023-08-01T02:26:05.500Z,246.19
2023-08-01T02:27:05.507Z,247.71
2023-08-01T02:28:05.590Z,247.99
2023-08-01T02:29:05.506Z,247.38
2023-08-01T02:30:05.546Z,247.09
2023-08-01T02:31:05.585Z,247.36
2023-08-01T02:32:05.651Z,248.29
2023-08-01T02:33:05.700Z,245.67
2023-08-01T02:34:05.637Z,246.78
2023-08-01T02:35:05.655Z,244.69
2023-08-01T02:36:05.679Z,244.29
2023-08-01T02:37:05.718Z,246.54
2023-08-01T02:38:05.807Z,245.19
2023-08-01T02:39:05.832Z,246.90
2023-08-01T02:40:05.791Z,245.10
2023-08-01T02:41:05.847Z,246.73
2023-08-01T02:42:05.957Z,245.79
2023-08-01T02:43:05.907Z,248.59
2023-08-01T02:44:05.941Z,248.20
2023-08-01T02:45:06.895Z,246.89
2023-08-01T02:46:06.015Z,247.41
2023-08-01T02:47:05.999Z,246.64
2023-08-01T02:48:06.107Z,245.26
2023-08-01T02:49:06.060Z,248.06
2023-08-01T02:50:06.080Z,247.75
2023-08-01T02:51:06.122Z,245.88
2023-08-01T02:52:06.155Z,247.14
2023-08-01T02:53:06.177Z,243.52
2023-08-01T02:54:06.209Z,245.54
2023-08-01T02:55:06.234Z,243.84
2023-08-01T02:56:06.258Z,244.08
2023-08-01T02:57:06.307Z,244.82
2023-08-01T02:58:06.330Z,243.70
2023-08-01T02:59:06.353Z,242.78
2023-08-01T03:00:06.392Z,244.56
2023-08-01T03:01:06.435Z,244.29
2023-08-01T03:02:06.431Z,244.36
2023-08-01T03:03:06.489Z,244.44
2023-08-01T03:04:06.482Z,245.07
2023-08-01T03:05:06.511Z,243.33
2023-08-01T03:06:06.542Z,244.26
2023-08-01T03:07:06.595Z,247.14
2023-08-01T03:08:06.585Z,247.36
2023-08-01T03:09:06.634Z,246.19
2023-08-01T03:10:06.641Z,248.09
2023-08-01T03:11:06.704Z,249.10
2023-08-01T03:12:06.737Z,248.55
2023-08-01T03:13:06.748Z,247.27
2023-08-01T03:14:06.778Z,249.00
2023-08-01T03:15:06.812Z,250.00
2023-08-01T03:16:06.880Z,248.61
2023-08-01T03:17:06.880Z,247.66
2023-08-01T03:18:06.925Z,250.00
2023-08-01T03:19:06.915Z,247.08
2023-08-01T03:20:06.946Z,247.79
2023-08-01T03:21:07.002Z,248.31
2023-08-01T03:22:06.995Z,244.50
2023-08-01T03:23:07.030Z,246.91
2023-08-01T03:24:07.081Z,243.89
2023-08-01T03:25:07.075Z,248.75
2023-08-01T03:26:07.129Z,247.22
2023-08-01T03:27:07.141Z,245.32
2023-08-01T03:28:07.210Z,245.39
2023-08-01T03:29:07.253Z,245.68
2023-08-01T03:30:07.246Z,244.59
2023-08-01T03:31:07.267Z,246.04
2023-08-01T03:32:07.393Z,245.33
2023-08-01T03:33:07.365Z,245.94
2023-08-01T03:34:07.414Z,244.77
2023-08-01T03:35:07.397Z,245.51
2023-08-01T03:36:07.417Z,246.22
2023-08-01T03:37:07.484Z,246.91
2023-08-01T03:38:07.505Z,248.92
2023-08-01T03:39:07.550Z,249.21
2023-08-01T03:40:07.573Z,249.84
2023-08-01T03:41:07.611Z,250.00
2023-08-01T03:42:07.653Z,248.42
2023-08-01T03:43:07.706Z,248.60
2023-08-01T03:44:07.716Z,249.06
2023-08-01T03:45:07.760Z,249.71
2023-08-01T03:46:07.825Z,248.97
2023-08-01T03:47:07.853Z,249.82
2023-08-01T03:48:07.918Z,249.53
2023-08-01T03:49:07.887Z,248.24
2023-08-01T03:50:07.965Z,247.33
2023-08-01T03:51:07.981Z,249.10
2023-08-01T03:52:08.003Z,249.35
2023-08-01T03:53:08.057Z,247.59
2023-08-01T03:54:14.053Z,247.25
2023-08-01T03:55:09.083Z,247.38
2023-08-01T03:56:08.062Z,247.75
2023-08-01T03:57:08.061Z,248.68
2023-08-01T03:58:08.061Z,249.13
2023-08-01T03:59:08.047Z,250.54
2023-08-01T04:00:08.043Z,250.00
2023-08-01T04:01:08.060Z,248.81
2023-08-01T04:02:08.039Z,247.50
2023-08-01T04:03:08.078Z,247.29
2023-08-01T04:04:08.089Z,248.81
2023-08-01T04:05:08.007Z,248.11
2023-08-01T04:06:08.006Z,246.84
2023-08-01T04:07:07.993Z,247.86
2023-08-01T04:08:08.031Z,248.28
2023-08-01T04:09:08.061Z,247.31
2023-08-01T04:10:08.102Z,247.75
2023-08-01T04:11:08.130Z,248.96
2023-08-01T04:12:08.169Z,250.00
2023-08-01T04:13:08.202Z,246.51
2023-08-01T04:14:08.249Z,248.26
2023-08-01T04:15:08.277Z,248.65
2023-08-01T04:16:08.346Z,248.52
2023-08-01T04:17:08.369Z,248.43
2023-08-01T04:18:08.466Z,248.28
2023-08-01T04:19:08.434Z,247.24
2023-08-01T04:20:08.482Z,249.72
2023-08-01T04:21:08.500Z,246.46
2023-08-01T04:22:08.547Z,249.12
2023-08-01T04:23:08.567Z,248.14
2023-08-01T04:24:08.597Z,247.92
2023-08-01T04:25:08.634Z,245.94
2023-08-01T04:26:08.692Z,249.12
2023-08-01T04:27:08.724Z,250.00
2023-08-01T04:28:08.818Z,248.85
2023-08-01T04:29:08.901Z,248.52
2023-08-01T04:30:08.869Z,249.02
2023-08-01T04:31:08.920Z,248.21
2023-08-01T04:32:08.946Z,248.32
2023-08-01T04:33:09.038Z,249.51
2023-08-01T04:34:09.000Z,248.97
2023-08-01T04:35:09.061Z,249.62
2023-08-01T04:36:09.102Z,248.87
2023-08-01T04:37:09.154Z,247.76
2023-08-01T04:38:09.172Z,248.39
2023-08-01T04:39:09.195Z,247.25
2023-08-01T04:40:09.291Z,246.65
2023-08-01T04:41:09.296Z,247.67
2023-08-01T04:42:09.348Z,249.24
2023-08-01T04:43:09.390Z,249.12
2023-08-01T04:44:09.437Z,247.28
2023-08-01T04:45:09.473Z,248.33
2023-08-01T04:46:10.710Z,249.58
2023-08-01T04:47:09.598Z,248.54
2023-08-01T04:48:09.581Z,249.03
2023-08-01T04:49:09.635Z,247.77
2023-08-01T04:50:09.696Z,247.18
2023-08-01T04:51:09.723Z,247.47
2023-08-01T04:52:09.783Z,247.91
2023-08-01T04:53:09.801Z,246.54
2023-08-01T04:54:09.836Z,249.31
2023-08-01T04:55:09.898Z,249.45
2023-08-01T04:56:09.933Z,246.59
2023-08-01T04:57:09.962Z,247.34
2023-08-01T04:58:11.540Z,248.31
2023-08-01T04:59:10.111Z,249.07
2023-08-01T05:00:10.086Z,247.59
2023-08-01T05:01:10.244Z,247.78
2023-08-01T05:02:10.181Z,249.21
2023-08-01T05:03:10.361Z,249.43
2023-08-01T05:04:10.266Z,250.00
2023-08-01T05:05:10.335Z,249.46
2023-08-01T05:06:10.405Z,248.36
2023-08-01T05:07:10.435Z,248.26
2023-08-01T05:08:10.469Z,249.81
2023-08-01T05:09:10.512Z,248.70
2023-08-01T05:10:10.574Z,247.52
2023-08-01T05:11:11.439Z,248.75
2023-08-01T05:12:10.657Z,248.55
2023-08-01T05:13:10.722Z,250.00
2023-08-01T05:14:10.760Z,247.36
2023-08-01T05:15:10.861Z,249.24
2023-08-01T05:16:10.863Z,250.00
2023-08-01T05:17:10.916Z,249.16
2023-08-01T05:18:10.945Z,245.97
2023-08-01T05:19:11.009Z,248.19
2023-08-01T05:20:11.041Z,248.54
2023-08-01T05:21:11.103Z,248.75
2023-08-01T05:22:11.122Z,248.68
2023-08-01T05:23:11.189Z,249.98
2023-08-01T05:24:11.214Z,248.57
2023-08-01T05:25:11.282Z,248.34
2023-08-01T05:26:11.310Z,247.05
2023-08-01T05:27:11.379Z,247.46
2023-08-01T05:28:11.411Z,246.90
2023-08-01T05:29:11.454Z,246.72
2023-08-01T05:30:11.479Z,245.99
2023-08-01T05:31:11.558Z,248.17
2023-08-01T05:32:11.562Z,249.03
2023-08-01T05:33:11.686Z,248.64
2023-08-01T05:34:11.655Z,247.59
2023-08-01T05:35:11.677Z,249.83
2023-08-01T05:36:11.732Z,247.90
2023-08-01T05:37:11.815Z,248.32
2023-08-01T05:38:11.830Z,246.08
2023-08-01T05:39:11.894Z,246.60
2023-08-01T05:40:11.968Z,244.50
2023-08-01T05:41:11.981Z,244.73
2023-08-01T05:42:12.021Z,246.71
2023-08-01T05:43:12.073Z,246.48
2023-08-01T05:44:12.161Z,246.89
2023-08-01T05:45:12.204Z,246.23
2023-08-01T05:46:12.247Z,245.80
2023-08-01T05:47:12.308Z,246.92
2023-08-01T05:48:12.332Z,246.58
2023-08-01T05:49:12.385Z,247.17
2023-08-01T05:50:12.417Z,247.88
2023-08-01T05:51:14.474Z,248.28
2023-08-01T05:52:12.483Z,249.78
2023-08-01T05:53:12.470Z,248.74
2023-08-01T05:54:12.458Z,248.76
2023-08-01T05:55:12.448Z,249.83
2023-08-01T05:56:12.490Z,249.71
2023-08-01T05:57:12.518Z,249.16
2023-08-01T05:58:12.431Z,249.27
2023-08-01T05:59:12.438Z,248.21
2023-08-01T06:00:12.437Z,248.28
2023-08-01T06:01:12.449Z,249.10
2023-08-01T06:02:12.430Z,248.65
2023-08-01T06:04:12.504Z,249.08
2023-08-01T06:05:12.392Z,249.68
2023-08-01T06:06:12.390Z,248.96
2023-08-01T06:07:12.379Z,250.00
2023-08-01T06:08:12.358Z,248.90
2023-08-01T06:09:12.377Z,248.36
2023-08-01T06:10:12.421Z,247.60
2023-08-01T06:11:12.366Z,245.78
2023-08-01T06:12:12.335Z,245.71
2023-08-01T06:13:12.322Z,245.53
2023-08-01T06:14:12.356Z,244.49
2023-08-01T06:15:12.312Z,243.85
2023-08-01T06:16:12.360Z,239.85
2023-08-01T06:17:12.314Z,239.50
2023-08-01T06:18:12.283Z,239.56
2023-08-01T06:19:12.302Z,239.01
2023-08-01T06:20:12.299Z,239.87
2023-08-01T06:21:12.284Z,238.92
2023-08-01T06:22:12.274Z,239.97
2023-08-01T06:23:12.282Z,236.94
2023-08-01T06:24:12.263Z,238.78
2023-08-01T06:25:12.260Z,240.60
2023-08-01T06:26:12.242Z,242.37
2023-08-01T06:27:12.254Z,244.12
2023-08-01T06:28:12.256Z,242.52
2023-08-01T06:29:12.244Z,244.05
2023-08-01T06:30:12.297Z,245.67
2023-08-01T06:31:12.318Z,246.04
2023-08-01T06:32:12.456Z,248.18
2023-08-01T06:33:12.511Z,247.39
2023-08-01T06:34:12.508Z,249.96
2023-08-01T06:35:12.541Z,248.41
2023-08-01T06:36:13.293Z,248.91
2023-08-01T06:37:12.653Z,249.46
2023-08-01T06:38:12.677Z,247.24
2023-08-01T06:39:12.710Z,248.93
2023-08-01T06:40:12.775Z,248.36
2023-08-01T06:41:12.821Z,248.90
2023-08-01T06:42:12.855Z,249.49
2023-08-01T06:43:12.911Z,249.05
2023-08-01T06:44:12.963Z,249.69
2023-08-01T06:45:13.008Z,248.66
2023-08-01T06:46:13.094Z,248.40
2023-08-01T06:47:13.109Z,246.75
2023-08-01T06:48:13.136Z,247.63
2023-08-01T06:49:13.211Z,245.63
2023-08-01T06:50:13.250Z,248.08
2023-08-01T06:51:13.284Z,245.47
2023-08-01T06:52:13.350Z,245.64
2023-08-01T06:53:13.417Z,246.15
2023-08-01T06:54:13.458Z,244.89
2023-08-01T06:55:13.514Z,242.04
2023-08-01T06:56:13.585Z,242.27
2023-08-01T06:57:13.620Z,241.79
2023-08-01T06:58:13.652Z,240.72
2023-08-01T06:59:13.707Z,239.99
2023-08-01T07:00:13.773Z,238.43
2023-08-01T07:01:13.848Z,238.34
2023-08-01T07:02:13.867Z,236.80
2023-08-01T07:03:13.997Z,237.91
2023-08-01T07:04:13.975Z,236.26
2023-08-01T07:05:14.035Z,236.67
2023-08-01T07:06:14.134Z,236.94
2023-08-01T07:07:14.169Z,237.76
2023-08-01T07:08:14.193Z,234.72
2023-08-01T07:09:14.249Z,236.87
2023-08-01T07:10:14.307Z,234.85
2023-08-01T07:11:14.330Z,235.03
2023-08-01T07:12:14.419Z,234.82
2023-08-01T07:13:14.452Z,234.19
2023-08-01T07:14:14.501Z,232.71
2023-08-01T07:15:14.581Z,235.56
2023-08-01T07:16:14.642Z,234.89
2023-08-01T07:17:14.665Z,235.56
2023-08-01T07:18:14.731Z,236.90
2023-08-01T07:19:14.766Z,236.16
2023-08-01T07:20:14.813Z,234.37
2023-08-01T07:21:14.884Z,236.15
2023-08-01T07:22:14.940Z,234.62
2023-08-01T07:23:14.985Z,235.03
2023-08-01T07:24:15.024Z,235.44
2023-08-01T07:25:15.080Z,235.02
2023-08-01T07:26:15.187Z,234.25
2023-08-01T07:27:15.216Z,234.91
2023-08-01T07:28:15.306Z,236.36
2023-08-01T07:29:15.289Z,236.02
2023-08-01T07:30:15.359Z,236.54
2023-08-01T07:31:15.459Z,236.03
2023-08-01T07:32:15.452Z,236.29
2023-08-01T07:33:15.522Z,237.81
2023-08-01T07:34:15.572Z,236.58
2023-08-01T07:35:15.713Z,239.09
2023-08-01T07:36:15.721Z,236.10
2023-08-01T07:37:15.712Z,236.73
2023-08-01T07:38:15.810Z,236.36
2023-08-01T07:39:15.823Z,238.75
2023-08-01T07:40:15.885Z,240.69
2023-08-01T07:41:15.930Z,240.38
2023-08-01T07:42:15.988Z,240.70
2023-08-01T07:43:16.031Z,241.43
2023-08-01T07:44:16.063Z,240.31
2023-08-01T07:45:16.115Z,241.29
2023-08-01T07:46:16.205Z,240.93
2023-08-01T07:47:16.205Z,240.69
2023-08-01T07:48:16.253Z,240.01
2023-08-01T07:49:16.286Z,239.63
2023-08-01T07:50:16.361Z,239.00
2023-08-01T07:51:16.419Z,237.96
2023-08-01T07:52:16.455Z,238.26
2023-08-01T07:53:16.505Z,238.60
2023-08-01T07:54:16.598Z,241.03
2023-08-01T07:55:16.618Z,238.06
2023-08-01T07:56:16.666Z,238.45
2023-08-01T07:57:16.745Z,236.79
2023-08-01T07:58:16.776Z,235.83
2023-08-01T07:59:16.840Z,234.64
2023-08-01T08:00:16.838Z,232.25
2023-08-01T08:01:16.904Z,231.46
2023-08-01T08:02:16.961Z,231.35
2023-08-01T08:03:17.052Z,230.60
2023-08-01T08:04:17.053Z,231.75
2023-08-01T08:05:17.092Z,231.70
2023-08-01T08:06:17.158Z,228.58
2023-08-01T08:07:17.166Z,229.85
2023-08-01T08:08:17.232Z,230.26
2023-08-01T08:09:17.228Z,226.50
2023-08-01T08:10:17.292Z,224.53
2023-08-01T08:11:17.320Z,225.02
2023-08-01T08:12:17.361Z,225.19
2023-08-01T08:13:17.420Z,223.01
2023-08-01T08:14:17.434Z,220.81
2023-08-01T08:15:17.495Z,221.27
2023-08-01T08:16:17.570Z,222.35
2023-08-01T08:17:17.607Z,222.11
2023-08-01T08:18:20.326Z,223.57
2023-08-01T08:19:17.618Z,227.86
2023-08-01T08:20:17.593Z,227.73
2023-08-01T08:21:17.618Z,228.79
2023-08-01T08:22:17.561Z,229.62
2023-08-01T08:23:17.566Z,229.53
2023-08-01T08:24:17.589Z,230.54
2023-08-01T08:25:17.539Z,231.35
2023-08-01T08:26:17.539Z,231.33
2023-08-01T08:27:17.527Z,231.73
2023-08-01T08:28:17.550Z,231.72
2023-08-01T08:29:17.522Z,232.78
2023-08-01T08:30:17.531Z,231.54
2023-08-01T08:31:17.552Z,232.87
2023-08-01T08:32:17.488Z,233.31
2023-08-01T08:33:17.486Z,234.18
2023-08-01T08:34:17.497Z,234.20
2023-08-01T08:35:17.490Z,232.55
2023-08-01T08:36:17.492Z,233.94
2023-08-01T08:37:17.491Z,233.43
2023-08-01T08:38:17.473Z,231.33
2023-08-01T08:39:17.464Z,231.33
2023-08-01T08:40:17.461Z,232.09
2023-08-01T08:41:17.444Z,231.07
2023-08-01T08:42:17.452Z,231.96
2023-08-01T08:43:17.422Z,231.24
2023-08-01T08:44:17.420Z,228.85
2023-08-01T08:45:17.424Z,231.82
2023-08-01T08:46:17.460Z,232.76
2023-08-01T08:47:17.404Z,234.80
2023-08-01T08:48:17.380Z,234.51
2023-08-01T08:49:17.422Z,235.36
2023-08-01T08:50:17.376Z,236.17
2023-08-01T08:51:17.370Z,234.32
2023-08-01T08:52:17.379Z,235.37
2023-08-01T08:53:17.368Z,235.33
2023-08-01T08:54:17.363Z,236.48
2023-08-01T08:55:17.345Z,235.42
2023-08-01T08:56:17.352Z,235.32
2023-08-01T08:57:17.337Z,235.12
2023-08-01T08:58:17.331Z,233.81
2023-08-01T08:59:17.337Z,234.66
2023-08-01T09:00:19.099Z,235.77
2023-08-01T09:01:17.353Z,237.74
2023-08-01T09:02:17.437Z,236.35
2023-08-01T09:03:17.369Z,237.45
2023-08-01T09:04:17.290Z,236.63
2023-08-01T09:05:17.318Z,237.18
2023-08-01T09:06:17.256Z,235.18
2023-08-01T09:07:17.256Z,237.02
2023-08-01T09:08:17.256Z,237.18
2023-08-01T09:09:17.286Z,235.73
2023-08-01T09:10:17.286Z,236.21
2023-08-01T09:11:17.249Z,235.94
2023-08-01T09:12:17.319Z,235.41
2023-08-01T09:13:17.227Z,233.25
2023-08-01T09:14:17.227Z,236.85
2023-08-01T09:15:17.206Z,235.32
2023-08-01T09:16:17.234Z,234.09
2023-08-01T09:17:17.207Z,234.51
2023-08-01T09:18:17.215Z,234.77
2023-08-01T09:19:17.219Z,233.88
2023-08-01T09:20:17.185Z,234.64
2023-08-01T09:21:17.172Z,234.69
2023-08-01T09:22:17.171Z,233.03
2023-08-01T09:23:17.190Z,230.41
2023-08-01T09:24:17.153Z,233.10
2023-08-01T09:25:17.155Z,229.71
2023-08-01T09:26:17.167Z,228.96
2023-08-01T09:27:17.168Z,230.07
2023-08-01T09:28:17.189Z,231.91
2023-08-01T09:29:17.126Z,232.20
2023-08-01T09:30:17.409Z,229.66
2023-08-01T09:31:17.172Z,230.34
2023-08-01T09:32:17.136Z,230.23
2023-08-01T09:33:17.095Z,228.05
2023-08-01T09:34:17.088Z,227.97
2023-08-01T09:35:17.140Z,225.81
2023-08-01T09:36:17.103Z,227.56
2023-08-01T09:37:17.091Z,225.55
2023-08-01T09:38:17.067Z,226.57
2023-08-01T09:39:17.047Z,227.11
2023-08-01T09:40:17.098Z,228.62
2023-08-01T09:41:17.065Z,228.86
2023-08-01T09:42:17.055Z,227.76
2023-08-01T09:43:17.022Z,227.22
2023-08-01T09:44:17.044Z,229.56
2023-08-01T09:45:17.052Z,229.54
2023-08-01T09:46:17.065Z,228.37
2023-08-01T09:47:17.023Z,231.05
2023-08-01T09:48:17.117Z,232.24
2023-08-01T09:49:16.990Z,231.22
2023-08-01T09:50:16.993Z,231.60
2023-08-01T09:51:17.006Z,230.39
2023-08-01T09:52:16.977Z,230.70
2023-08-01T09:53:16.983Z,229.25
2023-08-01T09:54:17.001Z,227.88
2023-08-01T09:55:16.966Z,227.78
2023-08-01T09:56:16.953Z,226.35
2023-08-01T09:57:16.936Z,228.11
2023-08-01T09:58:16.937Z,226.82
2023-08-01T09:59:16.934Z,227.43
2023-08-01T10:00:16.934Z,226.22
2023-08-01T10:01:16.909Z,225.55
2023-08-01T10:02:16.909Z,225.51
2023-08-01T10:03:17.013Z,225.19
2023-08-01T10:04:16.904Z,223.70
2023-08-01T10:05:16.945Z,222.38
2023-08-01T10:06:16.893Z,224.43
2023-08-01T10:07:16.885Z,220.79
2023-08-01T10:08:16.907Z,219.90
2023-08-01T10:09:16.902Z,219.17
2023-08-01T10:10:16.884Z,221.11
2023-08-01T10:11:16.856Z,223.19
2023-08-01T10:12:16.879Z,223.63
2023-08-01T10:13:16.864Z,222.01
2023-08-01T10:14:16.856Z,225.05
2023-08-01T10:15:16.880Z,222.11
2023-08-01T10:16:16.860Z,219.94
2023-08-01T10:17:16.858Z,223.58
2023-08-01T10:18:16.844Z,221.12
2023-08-01T10:19:16.853Z,218.48
2023-08-01T10:20:16.813Z,219.82
2023-08-01T10:21:16.827Z,220.99
2023-08-01T10:22:16.818Z,218.04
2023-08-01T10:23:16.800Z,218.25
2023-08-01T10:24:16.847Z,219.31
2023-08-01T10:25:16.880Z,222.31
2023-08-01T10:26:16.929Z,220.44
2023-08-01T10:27:16.885Z,222.39
2023-08-01T10:28:16.969Z,221.09
2023-08-01T10:29:16.912Z,221.36
2023-08-01T10:30:16.920Z,222.80
2023-08-01T10:31:17.015Z,223.78
2023-08-01T10:32:16.988Z,220.21
2023-08-01T10:33:16.998Z,219.23
2023-08-01T10:34:17.594Z,216.70
2023-08-01T10:35:17.074Z,213.73
2023-08-01T10:36:17.053Z,214.34
2023-08-01T10:37:17.065Z,212.19
2023-08-01T10:38:17.101Z,212.20
2023-08-01T10:39:17.103Z,211.08
2023-08-01T10:40:17.341Z,209.17
2023-08-01T10:41:17.166Z,208.73
2023-08-01T10:42:17.196Z,208.08
2023-08-01T10:43:17.180Z,204.34
2023-08-01T10:44:17.237Z,207.01
2023-08-01T10:45:17.238Z,202.95
2023-08-01T10:46:17.292Z,199.91
2023-08-01T10:47:17.287Z,199.19
2023-08-01T10:48:17.299Z,198.16
2023-08-01T10:49:17.318Z,200.41
2023-08-01T10:50:17.314Z,199.67
2023-08-01T10:51:17.342Z,200.05
2023-08-01T10:52:17.403Z,198.82
2023-08-01T10:53:17.379Z,195.79
2023-08-01T10:54:17.411Z,195.08
2023-08-01T10:55:17.424Z,195.23
2023-08-01T10:56:17.575Z,196.44
2023-08-01T10:57:17.458Z,196.25
2023-08-01T10:58:17.506Z,197.54
2023-08-01T10:59:17.528Z,199.98
2023-08-01T11:00:18.357Z,199.85
2023-08-01T11:01:17.591Z,200.57
2023-08-01T11:02:17.594Z,201.14
2023-08-01T11:03:17.643Z,197.94
2023-08-01T11:04:17.600Z,197.48
2023-08-01T11:05:17.600Z,199.76
2023-08-01T11:06:17.635Z,197.32
2023-08-01T11:07:17.623Z,200.03
2023-08-01T11:08:17.651Z,200.01
2023-08-01T11:09:17.664Z,198.84
2023-08-01T11:10:17.690Z,199.01
2023-08-01T11:11:17.741Z,198.16
2023-08-01T11:12:17.714Z,200.62
2023-08-01T11:13:17.755Z,201.70
2023-08-01T11:14:17.733Z,200.59
2023-08-01T11:15:17.750Z,203.06
2023-08-01T11:16:17.790Z,201.31
2023-08-01T11:17:17.778Z,201.62
2023-08-01T11:18:17.794Z,200.92
2023-08-01T11:19:17.787Z,201.52
2023-08-01T11:20:17.814Z,202.14
2023-08-01T11:21:17.824Z,206.02
2023-08-01T11:22:17.814Z,206.02
2023-08-01T11:23:17.822Z,201.84
2023-08-01T11:24:17.835Z,202.92
2023-08-01T11:25:17.820Z,204.15
2023-08-01T11:26:17.825Z,201.55
2023-08-01T11:27:17.843Z,200.34
2023-08-01T11:28:17.895Z,201.26
2023-08-01T11:29:17.863Z,202.59
2023-08-01T11:30:17.844Z,205.31
2023-08-01T11:31:17.902Z,205.91
2023-08-01T11:32:17.865Z,207.18
2023-08-01T11:33:17.860Z,203.75
2023-08-01T11:34:17.873Z,205.26
2023-08-01T11:35:17.891Z,205.03
2023-08-01T11:36:17.861Z,205.35
2023-08-01T11:37:17.886Z,206.68
2023-08-01T11:38:17.873Z,206.05
2023-08-01T11:39:17.869Z,200.90
2023-08-01T11:40:17.865Z,201.24
2023-08-01T11:41:17.951Z,200.01
2023-08-01T11:42:17.880Z,201.78
2023-08-01T11:43:17.908Z,201.58
2023-08-01T11:44:17.937Z,200.61
2023-08-01T11:45:17.897Z,205.51
2023-08-01T11:46:17.934Z,213.65
2023-08-01T11:47:17.928Z,218.78
2023-08-01T11:48:17.890Z,225.26
2023-08-01T11:49:17.913Z,228.63
2023-08-01T11:50:17.879Z,231.28
2023-08-01T11:51:17.892Z,239.78
2023-08-01T11:52:17.918Z,239.48
2023-08-01T11:53:17.879Z,244.33
2023-08-01T11:54:17.928Z,248.24
2023-08-01T11:55:17.914Z,249.11
2023-08-01T11:56:17.933Z,250.12
2023-08-01T11:57:17.954Z,247.39
2023-08-01T11:58:18.037Z,243.51
2023-08-01T11:59:17.944Z,245.05
2023-08-01T12:00:17.959Z,246.03
2023-08-01T12:01:18.007Z,245.27
2023-08-01T12:02:17.952Z,240.38
2023-08-01T12:03:17.988Z,245.29
2023-08-01T12:04:17.983Z,244.74
2023-08-01T12:05:17.992Z,242.13
2023-08-01T12:06:17.977Z,237.83
2023-08-01T12:07:18.001Z,230.53
2023-08-01T12:08:17.984Z,232.63
2023-08-01T12:09:17.990Z,236.85
2023-08-01T12:10:17.997Z,230.85
2023-08-01T12:11:18.008Z,228.06
2023-08-01T12:12:17.994Z,216.65
2023-08-01T12:13:17.996Z,214.09
2023-08-01T12:14:17.991Z,210.13
2023-08-01T12:15:18.002Z,203.31
2023-08-01T12:16:18.042Z,201.78
2023-08-01T12:17:17.994Z,197.84
2023-08-01T12:18:19.059Z,195.91
2023-08-01T12:19:19.027Z,195.59
2023-08-01T12:20:17.992Z,192.28
2023-08-01T12:21:17.967Z,187.46
2023-08-01T12:22:18.047Z,183.41
2023-08-01T12:23:17.967Z,181.68
2023-08-01T12:24:17.990Z,174.65
2023-08-01T12:25:17.951Z,175.65
2023-08-01T12:26:17.961Z,173.68
2023-08-01T12:27:17.943Z,173.10
2023-08-01T12:28:17.944Z,176.51
2023-08-01T12:29:17.941Z,181.13